New Orleans, LA (70123)

10:39 PM CDT on September 17, 2014 (GMT -0500)
Hickory Ridge Estates | Change Station
CLOSE
Current Station
Personal Weather Station
Location: Harahan, LA
Elevation: 11 ft
Nearby Weather Stations

Elev 11 ft 29.95 °N, 90.20 °W | Updated 10 seconds ago

Mostly Cloudy
Mostly Cloudy
76.6 °F
Feels Like 77 °F
N
0.0
Wind Variable Wind from SW
Gusts 1.0 mph

Today
High -- | Low -- °F
--% Chance of Precip.
Yesterday
High -- | Low -- °F
Precip. -- in
6:46 AM 7:03 PM
Waning Crescent, 30% visible
Pressure 29.94 in
Visibility 10.0 miles
Clouds Few 2500 ft
Few 15000 ft
Mostly Cloudy 25000 ft
Heat Index 77 °F
Dew Point 73 °F
Humidity 88%
Rainfall 0.00 in
Snow Depth Not available.
UV 0 out of 12
Pollen 9.20 out of 12
Ozone Good
PM2.5 Moderate
Flu Activity Not available.
METAR KMSY 180253Z 00000KT 10SM FEW025 FEW150 BKN250 26/22 A2993 RMK AO2 SLP138 T02610222 51009

More Conditions Fewer Conditions

Pressure 29.94 in
Visibility 10.0 miles
Clouds Few 2500 ft
Few 15000 ft
Mostly Cloudy 25000 ft
Heat Index 77 °F
Dew Point 73 °F
Humidity 88%
Rainfall 0.00 in
Snow Depth Not available.
UV 0 out of 12
Pollen 9.20 out of 12
Ozone Good
PM2.5 Moderate
Flu Activity Not available.
METAR KMSY 180253Z 00000KT 10SM FEW025 FEW150 BKN250 26/22 A2993 RMK AO2 SLP138 T02610222 51009

More Conditions Fewer Conditions

10-Day Weather Forecast

Almanac

Astronomy

Sep. 17, 2014 Rise Set
Actual Time 6:46 AM CDT 7:03 PM CDT
Civil Twilight 6:22 AM CDT 7:27 PM CDT
Nautical Twilight 5:54 AM CDT 7:55 PM CDT
Astronomical Twilight 5:26 AM CDT 8:23 PM CDT
Moon 1:04 AM CDT (9/17) 2:56 PM CDT (9/17)
Length of Visible Light 13h 04m
Length of Day
12h 17m
Tomorrow will be 1m 48s shorter.
Waning Crescent, 30% of the Moon is Illuminated
Today
Waning Crescent
Sep 24
New
Oct 1
First Quarter
Oct 8
Full
Oct 15
Last Quarter

Today's Extremes

State Highs State Lows

Community

WunderPhotos

Upload Photos

1,754,283 photos uploaded!

Nearby

Air Quality

  Air Quality AQ Index Pollutant
Yesterday Good
OZONE
Yesterday Good
PM2.5
Current Moderate
PM2.5
Current Good
OZONE
Wednesday Moderate
PM2.5
Wednesday Good
OZONE
Thursday Moderate
PM2.5
Thursday Good
OZONE
Friday Good
PM2.5
Friday Good
OZONE

Snow Depth

Station Depth Elevation
No new snow has been reported.

Earthquake Activity

City Distance Mag. Time & Date
No recent earthquake activity has been reported nearby.
Minimum magnitude displayed is 2.5.

Coastal Water Temperatures

Place Temperature
New Canal, LA 82.9 °F
Shell Beach, LA 82.0 °F
Bayou Gauche, LA 87.1 °F

Nearby Weather Stations